createdAt,value
2023-05-21T00:00:57.027Z,99.90
2023-05-21T00:03:28.552Z,99.90
2023-05-21T00:06:01.800Z,99.90
2023-05-21T00:08:32.078Z,99.90
2023-05-21T00:11:02.136Z,99.90
2023-05-21T00:13:32.228Z,99.90
2023-05-21T00:16:02.358Z,99.90
2023-05-21T00:18:32.570Z,99.90
2023-05-21T00:21:05.270Z,99.90
2023-05-21T00:23:36.758Z,99.90
2023-05-21T00:26:06.818Z,99.90
2023-05-21T00:28:36.849Z,99.90
2023-05-21T00:31:06.950Z,99.90
2023-05-21T00:33:36.979Z,99.90
2023-05-21T00:36:10.557Z,99.90
2023-05-21T00:38:43.688Z,99.90
2023-05-21T00:41:14.253Z,99.90
2023-05-21T00:43:44.833Z,99.90
2023-05-21T00:46:23.463Z,99.90
2023-05-21T00:48:54.235Z,99.90
2023-05-21T00:51:30.472Z,99.90
2023-05-21T00:54:01.217Z,99.90
2023-05-21T00:56:31.507Z,99.90
2023-05-21T00:59:05.745Z,99.90
2023-05-21T01:01:37.223Z,99.90
2023-05-21T01:04:07.895Z,99.90
2023-05-21T01:06:40.701Z,99.90
2023-05-21T01:09:10.857Z,99.90
2023-05-21T01:11:43.833Z,99.90
2023-05-21T01:14:15.511Z,99.90
2023-05-21T01:16:49.581Z,99.90
2023-05-21T01:19:23.122Z,99.90
2023-05-21T01:21:59.786Z,99.90
2023-05-21T01:24:32.625Z,99.90
2023-05-21T01:27:07.806Z,99.90
2023-05-21T01:29:38.046Z,99.90
2023-05-21T01:32:14.456Z,99.90
2023-05-21T01:34:51.211Z,99.90
2023-05-21T01:37:28.644Z,99.90
2023-05-21T01:40:12.393Z,99.90
2023-05-21T01:42:46.254Z,99.90
2023-05-21T01:45:19.316Z,99.90
2023-05-21T01:47:53.470Z,99.90
2023-05-21T01:50:26.012Z,99.90
2023-05-21T01:52:58.674Z,99.90
2023-05-21T01:55:31.500Z,99.90
2023-05-21T01:58:02.949Z,99.90
2023-05-21T02:00:34.797Z,99.90
2023-05-21T02:03:04.995Z,99.90
2023-05-21T02:05:35.524Z,99.90
2023-05-21T02:08:08.545Z,99.90
2023-05-21T02:10:41.496Z,99.90
2023-05-21T02:13:11.606Z,99.90
2023-05-21T02:15:41.734Z,99.90
2023-05-21T02:18:11.916Z,99.90
2023-05-21T02:20:42.063Z,99.90
2023-05-21T02:23:12.431Z,99.90
2023-05-21T02:25:45.123Z,99.90
2023-05-21T02:28:16.097Z,99.90
2023-05-21T02:30:46.318Z,99.90
2023-05-21T02:33:20.406Z,99.90
2023-05-21T02:35:50.656Z,99.90
2023-05-21T02:38:23.349Z,99.90
2023-05-21T02:40:56.344Z,99.90
2023-05-21T02:43:26.534Z,99.90
2023-05-21T02:45:56.857Z,99.90
2023-05-21T02:48:27.022Z,99.90
2023-05-21T02:50:57.266Z,99.90
2023-05-21T02:53:27.470Z,99.90
2023-05-21T02:56:00.363Z,99.90
2023-05-21T02:58:30.556Z,99.90
2023-05-21T03:01:00.743Z,99.90
2023-05-21T03:03:32.142Z,99.90
2023-05-21T03:06:02.439Z,99.90
2023-05-21T03:08:32.625Z,99.90
2023-05-21T03:11:05.377Z,99.90
2023-05-21T03:13:35.633Z,99.90
2023-05-21T03:16:05.959Z,99.90
2023-05-21T03:18:36.216Z,99.90
2023-05-21T03:21:06.687Z,99.90
2023-05-21T03:23:37.226Z,99.90
2023-05-21T03:26:09.938Z,99.90
2023-05-21T03:28:40.078Z,99.90
2023-05-21T03:31:10.253Z,99.90
2023-05-21T03:33:40.405Z,99.90
2023-05-21T03:36:10.907Z,99.90
2023-05-21T03:38:41.084Z,99.90
2023-05-21T03:41:14.500Z,99.90
2023-05-21T03:43:44.672Z,99.90
2023-05-21T03:46:14.816Z,99.90
2023-05-21T03:48:45.003Z,99.90
2023-05-21T03:51:16.253Z,99.90
2023-05-21T03:53:46.445Z,99.90
2023-05-21T03:56:19.369Z,99.90
2023-05-21T03:58:49.720Z,99.90
2023-05-21T04:01:19.958Z,99.90
2023-05-21T04:03:50.187Z,99.90
2023-05-21T04:06:20.725Z,99.90
2023-05-21T04:08:50.898Z,99.90
2023-05-21T04:11:23.819Z,99.90
2023-05-21T04:13:53.988Z,99.90
2023-05-21T04:16:24.859Z,99.90
2023-05-21T04:18:55.661Z,99.90
2023-05-21T04:21:25.789Z,99.90
2023-05-21T04:23:57.740Z,99.90
2023-05-21T04:26:34.039Z,99.90
2023-05-21T04:29:05.166Z,99.90
2023-05-21T04:31:35.584Z,99.90
2023-05-21T04:34:06.521Z,99.90
2023-05-21T04:36:36.597Z,99.90
2023-05-21T04:39:07.461Z,99.90
2023-05-21T04:41:40.117Z,99.90
2023-05-21T04:44:11.462Z,99.90
2023-05-21T04:46:41.892Z,99.90
2023-05-21T04:49:12.882Z,99.90
2023-05-21T04:51:42.930Z,99.90
2023-05-21T04:54:13.042Z,99.90
2023-05-21T04:56:47.539Z,99.90
2023-05-21T04:59:18.797Z,99.90
2023-05-21T05:01:49.250Z,99.90
2023-05-21T05:04:19.386Z,99.90
2023-05-21T05:06:49.599Z,99.90
2023-05-21T05:09:21.691Z,99.90
2023-05-21T05:11:54.473Z,99.90
2023-05-21T05:14:24.535Z,99.90
2023-05-21T05:16:54.704Z,99.90
2023-05-21T05:19:24.929Z,99.90
2023-05-21T05:21:55.162Z,99.90
2023-05-21T05:24:25.258Z,99.90
2023-05-21T05:26:57.938Z,99.90
2023-05-21T05:29:28.005Z,99.90
2023-05-21T05:31:58.084Z,99.90
2023-05-21T05:34:28.411Z,99.90
2023-05-21T05:36:59.068Z,99.90
2023-05-21T05:39:29.139Z,99.90
2023-05-21T05:42:02.083Z,99.90
2023-05-21T05:44:32.150Z,99.90
2023-05-21T05:47:02.212Z,99.90
2023-05-21T05:49:32.310Z,99.90
2023-05-21T05:52:03.247Z,99.90
2023-05-21T05:54:33.328Z,99.90
2023-05-21T05:57:06.068Z,99.90
2023-05-21T05:59:36.633Z,99.90
2023-05-21T06:02:07.095Z,99.90
2023-05-21T06:04:37.186Z,99.90
2023-05-21T06:07:07.938Z,99.90
2023-05-21T06:09:38.996Z,99.90
2023-05-21T06:12:14.738Z,99.90
2023-05-21T06:14:46.267Z,99.90
2023-05-21T06:17:16.505Z,99.90
2023-05-21T06:19:46.706Z,99.90
2023-05-21T06:22:17.017Z,99.90
2023-05-21T06:24:47.292Z,99.90
2023-05-21T06:27:20.060Z,99.90
2023-05-21T06:29:50.369Z,99.90
2023-05-21T06:32:21.659Z,99.90
2023-05-21T06:34:51.965Z,99.90
2023-05-21T06:37:25.853Z,99.90
2023-05-21T06:39:56.540Z,99.90
2023-05-21T06:42:29.284Z,99.90
2023-05-21T06:44:59.461Z,99.90
2023-05-21T06:47:29.632Z,99.90
2023-05-21T06:49:59.721Z,99.90
2023-05-21T06:52:31.920Z,99.90
2023-05-21T06:55:02.041Z,99.90
2023-05-21T06:57:34.738Z,99.90
2023-05-21T07:00:05.229Z,99.90
2023-05-21T07:02:35.461Z,99.90
2023-05-21T07:05:05.651Z,99.90
2023-05-21T07:07:35.818Z,99.90
2023-05-21T07:10:06.034Z,99.90
2023-05-21T07:12:38.716Z,99.90
2023-05-21T07:15:10.578Z,99.90
2023-05-21T07:17:40.736Z,99.90
2023-05-21T07:20:12.654Z,99.90
2023-05-21T07:22:43.926Z,99.90
2023-05-21T07:25:13.998Z,99.90
2023-05-21T07:27:46.669Z,99.90
2023-05-21T07:30:18.111Z,99.90
2023-05-21T07:32:48.214Z,99.90
2023-05-21T07:35:18.565Z,99.90
2023-05-21T07:37:49.044Z,99.90
2023-05-21T07:40:19.512Z,99.90
2023-05-21T07:42:52.412Z,99.90
2023-05-21T07:45:22.904Z,99.90
2023-05-21T07:47:53.060Z,99.90
2023-05-21T07:50:23.208Z,99.90
2023-05-21T07:52:53.369Z,99.90
2023-05-21T07:55:23.920Z,99.90
2023-05-21T07:57:56.632Z,99.90
2023-05-21T08:00:27.478Z,99.90
2023-05-21T08:02:57.648Z,99.90
2023-05-21T08:05:27.764Z,99.90
2023-05-21T08:08:00.372Z,99.90
2023-05-21T08:10:30.429Z,99.90
2023-05-21T08:13:03.095Z,99.90
2023-05-21T08:15:33.152Z,99.90
2023-05-21T08:18:03.339Z,99.90
2023-05-21T08:20:33.847Z,99.90
2023-05-21T08:23:04.162Z,99.90
2023-05-21T08:25:34.521Z,99.90
2023-05-21T08:28:07.644Z,99.90
2023-05-21T08:30:37.710Z,99.90
2023-05-21T08:33:07.948Z,99.90
2023-05-21T08:35:38.269Z,99.90
2023-05-21T08:38:08.668Z,99.90
2023-05-21T08:40:38.770Z,99.90
2023-05-21T08:43:14.665Z,99.90
2023-05-21T08:45:48.952Z,99.90
2023-05-21T08:48:19.882Z,99.90
2023-05-21T08:50:50.161Z,99.90
2023-05-21T08:53:28.262Z,99.90
2023-05-21T08:56:00.181Z,99.90
2023-05-21T08:58:36.490Z,99.90
2023-05-21T09:01:07.952Z,99.90
2023-05-21T09:03:39.590Z,99.90
2023-05-21T09:06:10.829Z,99.90
2023-05-21T09:08:46.949Z,99.90
2023-05-21T09:11:18.040Z,99.90
2023-05-21T09:13:52.233Z,99.90
2023-05-21T09:16:22.583Z,99.90
2023-05-21T09:18:53.096Z,99.90
2023-05-21T09:21:27.798Z,99.90
2023-05-21T09:23:59.783Z,99.90
2023-05-21T09:26:30.175Z,99.90
2023-05-21T09:29:03.922Z,99.90
2023-05-21T09:31:34.102Z,99.90
2023-05-21T09:34:04.286Z,99.90
2023-05-21T09:36:34.881Z,99.90
2023-05-21T09:39:05.124Z,99.90
2023-05-21T09:41:37.092Z,99.90
2023-05-21T09:44:10.726Z,99.90
2023-05-21T09:46:42.595Z,99.90
2023-05-21T09:49:26.905Z,99.90
2023-05-21T09:51:59.657Z,99.90
2023-05-21T09:54:35.475Z,99.90
2023-05-21T09:57:06.027Z,99.90
2023-05-21T09:59:42.292Z,99.70
2023-05-21T10:02:22.897Z,99.80
2023-05-21T10:04:55.289Z,99.10
2023-05-21T10:07:29.061Z,99.50
2023-05-21T10:10:00.568Z,99.80
2023-05-21T10:12:33.515Z,99.70
2023-05-21T10:15:08.227Z,99.20
2023-05-21T10:17:38.522Z,98.50
2023-05-21T10:20:11.823Z,97.70
2023-05-21T10:22:43.063Z,97.80
2023-05-21T10:25:15.674Z,97.60
2023-05-21T10:27:46.158Z,97.10
2023-05-21T10:30:21.234Z,96.50
2023-05-21T10:32:52.790Z,96.70
2023-05-21T10:35:23.064Z,96.10
2023-05-21T10:37:54.999Z,96.00
2023-05-21T10:40:25.380Z,95.90
2023-05-21T10:43:16.602Z,95.90
2023-05-21T10:46:08.948Z,95.30
2023-05-21T10:49:03.635Z,95.40
2023-05-21T10:51:52.114Z,94.60
2023-05-21T10:54:58.339Z,94.00
2023-05-21T10:58:15.851Z,94.10
2023-05-21T11:00:48.941Z,93.80
2023-05-21T11:03:20.218Z,94.50
2023-05-21T11:05:57.038Z,94.30
2023-05-21T11:08:30.756Z,93.00
2023-05-21T11:11:01.442Z,92.50
2023-05-21T11:13:48.959Z,93.00
2023-05-21T11:16:23.216Z,92.90
2023-05-21T11:19:04.514Z,92.40
2023-05-21T11:21:38.077Z,91.90
2023-05-21T11:24:11.329Z,92.50
2023-05-21T11:27:07.138Z,92.20
2023-05-21T11:29:46.354Z,91.90
2023-05-21T11:32:20.853Z,91.40
2023-05-21T11:34:51.858Z,91.60
2023-05-21T11:37:34.854Z,91.60
2023-05-21T11:40:22.700Z,91.90
2023-05-21T11:42:55.032Z,91.10
2023-05-21T11:45:27.557Z,90.60
2023-05-21T11:48:00.787Z,91.10
2023-05-21T11:50:34.133Z,90.80
2023-05-21T11:53:04.457Z,90.60
2023-05-21T11:55:34.855Z,90.30
2023-05-21T11:58:06.072Z,90.40
2023-05-21T12:00:42.912Z,90.90
2023-05-21T12:03:18.268Z,90.40
2023-05-21T12:05:49.497Z,90.70
2023-05-21T12:08:25.810Z,90.90
2023-05-21T12:10:59.864Z,91.10
2023-05-21T12:13:30.698Z,90.50
2023-05-21T12:16:01.023Z,90.70
2023-05-21T12:18:33.760Z,90.70
2023-05-21T12:21:04.012Z,90.10
2023-05-21T12:23:34.462Z,90.10
2023-05-21T12:26:04.652Z,90.30
2023-05-21T12:28:35.243Z,90.50
2023-05-21T12:31:05.316Z,90.50
2023-05-21T12:33:39.976Z,90.00
2023-05-21T12:36:10.241Z,90.00
2023-05-21T12:38:41.942Z,90.20
2023-05-21T12:41:12.049Z,90.20
2023-05-21T12:43:42.178Z,90.20
2023-05-21T12:46:17.418Z,88.80
2023-05-21T12:48:57.027Z,88.90
2023-05-21T12:51:27.092Z,90.10
2023-05-21T12:53:57.145Z,89.90
2023-05-21T12:56:27.233Z,89.10
2023-05-21T12:58:57.716Z,89.80
2023-05-21T13:01:28.471Z,89.90
2023-05-21T13:04:01.316Z,88.10
2023-05-21T13:06:31.653Z,89.80
2023-05-21T13:09:01.842Z,87.80
2023-05-21T13:11:32.525Z,87.60
2023-05-21T13:14:02.602Z,87.40
2023-05-21T13:16:33.325Z,87.00
2023-05-21T13:19:06.384Z,87.90
2023-05-21T13:21:36.604Z,88.40
2023-05-21T13:24:07.620Z,87.60
2023-05-21T13:26:38.115Z,88.90
2023-05-21T13:29:08.258Z,85.90
2023-05-21T13:31:38.888Z,86.60
2023-05-21T13:34:11.604Z,86.10
2023-05-21T13:36:42.266Z,87.50
2023-05-21T13:39:12.617Z,87.10
2023-05-21T13:41:44.005Z,86.30
2023-05-21T13:44:16.563Z,86.20
2023-05-21T13:46:46.760Z,86.90
2023-05-21T13:49:19.690Z,86.70
2023-05-21T13:51:49.826Z,86.50
2023-05-21T13:54:20.029Z,85.30
2023-05-21T13:56:50.288Z,85.00
2023-05-21T13:59:20.729Z,85.00
2023-05-21T14:01:52.426Z,85.00
2023-05-21T14:04:25.285Z,84.50
2023-05-21T14:06:55.704Z,85.50
2023-05-21T14:09:27.384Z,85.10
2023-05-21T14:11:58.922Z,84.80
2023-05-21T14:14:28.986Z,84.60
2023-05-21T14:16:59.224Z,84.50
2023-05-21T14:19:32.334Z,83.60
2023-05-21T14:22:02.613Z,83.90
2023-05-21T14:24:32.729Z,84.10
2023-05-21T14:27:02.850Z,83.80
2023-05-21T14:29:33.461Z,83.00
2023-05-21T14:32:03.556Z,83.20
2023-05-21T14:34:36.260Z,82.50
2023-05-21T14:37:06.353Z,82.50
2023-05-21T14:39:36.506Z,83.50
2023-05-21T14:42:07.453Z,83.50
2023-05-21T14:44:37.500Z,82.60
2023-05-21T14:47:07.926Z,82.30
2023-05-21T14:49:40.621Z,82.00
2023-05-21T14:52:10.933Z,82.30
2023-05-21T14:54:41.058Z,81.90
2023-05-21T14:57:11.268Z,81.90
2023-05-21T14:59:41.355Z,82.30
2023-05-21T15:02:11.501Z,82.80
2023-05-21T15:04:44.158Z,82.00
2023-05-21T15:07:14.217Z,82.20
2023-05-21T15:09:44.301Z,81.70
2023-05-21T15:12:14.445Z,82.80
2023-05-21T15:14:44.645Z,81.90
2023-05-21T15:17:14.727Z,82.20
2023-05-21T15:19:47.381Z,81.80
2023-05-21T15:22:17.768Z,79.80
2023-05-21T15:24:47.918Z,81.20
2023-05-21T15:27:18.080Z,80.30
2023-05-21T15:29:49.521Z,79.70
2023-05-21T15:32:20.933Z,81.50
2023-05-21T15:34:54.384Z,79.80
2023-05-21T15:37:24.602Z,79.70
2023-05-21T15:39:54.930Z,80.40
2023-05-21T15:42:24.983Z,79.90
2023-05-21T15:44:55.049Z,80.70
2023-05-21T15:47:25.159Z,80.00
2023-05-21T15:49:58.949Z,79.80
2023-05-21T15:52:29.160Z,79.50
2023-05-21T15:54:59.257Z,79.20
2023-05-21T15:57:29.388Z,77.90
2023-05-21T15:59:59.645Z,78.60
2023-05-21T16:02:29.913Z,78.70
2023-05-21T16:05:02.580Z,78.50
2023-05-21T16:07:32.660Z,79.60
2023-05-21T16:10:02.710Z,80.30
2023-05-21T16:12:32.789Z,79.50
2023-05-21T16:15:02.866Z,79.80
2023-05-21T16:17:33.030Z,79.40
2023-05-21T16:20:05.781Z,79.10
2023-05-21T16:22:35.886Z,79.10
2023-05-21T16:25:06.257Z,79.50
2023-05-21T16:27:36.458Z,79.20
2023-05-21T16:30:07.675Z,78.50
2023-05-21T16:32:39.703Z,79.30
2023-05-21T16:35:12.642Z,78.50
2023-05-21T16:37:42.688Z,78.50
2023-05-21T16:40:14.582Z,79.10
2023-05-21T16:42:44.792Z,78.60
2023-05-21T16:45:20.647Z,78.80
2023-05-21T16:47:51.354Z,78.80
2023-05-21T16:50:24.121Z,79.20
2023-05-21T16:52:54.187Z,79.60
2023-05-21T16:55:24.647Z,79.80
2023-05-21T16:57:54.718Z,79.30
2023-05-21T17:00:25.054Z,79.20
2023-05-21T17:02:55.631Z,79.30
2023-05-21T17:05:28.471Z,79.20
2023-05-21T17:07:58.707Z,79.20
2023-05-21T17:10:28.924Z,79.30
2023-05-21T17:13:01.828Z,79.80
2023-05-21T17:15:37.084Z,80.20
2023-05-21T17:18:07.330Z,80.10
2023-05-21T17:20:40.041Z,80.10
2023-05-21T17:23:10.150Z,79.50
2023-05-21T17:25:40.957Z,79.80
2023-05-21T17:28:11.435Z,79.70
2023-05-21T17:30:41.822Z,79.60
2023-05-21T17:33:12.355Z,80.40
2023-05-21T17:35:45.111Z,79.40
2023-05-21T17:38:15.247Z,79.60
2023-05-21T17:40:45.309Z,80.20
2023-05-21T17:43:15.385Z,79.80
2023-05-21T17:45:46.568Z,79.80
2023-05-21T17:48:16.790Z,80.40
2023-05-21T17:50:49.541Z,79.40
2023-05-21T17:53:19.737Z,80.00
2023-05-21T17:55:50.079Z,80.00
2023-05-21T17:58:20.129Z,80.50
2023-05-21T18:00:50.252Z,80.60
2023-05-21T18:03:21.159Z,81.10
2023-05-21T18:05:54.028Z,81.10
2023-05-21T18:08:24.227Z,80.80
2023-05-21T18:10:54.376Z,80.70
2023-05-21T18:13:24.413Z,80.70
2023-05-21T18:15:56.427Z,81.40
2023-05-21T18:18:26.682Z,81.60
2023-05-21T18:20:59.441Z,81.30
2023-05-21T18:23:31.439Z,81.20
2023-05-21T18:26:01.561Z,81.60
2023-05-21T18:28:32.598Z,81.50
2023-05-21T18:31:04.430Z,81.10
2023-05-21T18:33:34.608Z,81.10
2023-05-21T18:36:08.048Z,81.50
2023-05-21T18:38:38.417Z,81.80
2023-05-21T18:41:08.880Z,82.00
2023-05-21T18:43:39.199Z,81.80
2023-05-21T18:46:09.324Z,81.30
2023-05-21T18:48:39.414Z,81.40
2023-05-21T18:51:12.146Z,82.00
2023-05-21T18:53:42.665Z,82.20
2023-05-21T18:56:15.242Z,81.90
2023-05-21T18:58:47.808Z,82.40
2023-05-21T19:01:18.370Z,82.20
2023-05-21T19:03:51.518Z,82.30
2023-05-21T19:06:25.809Z,82.50
2023-05-21T19:08:55.744Z,82.40
2023-05-21T19:11:31.118Z,82.90
2023-05-21T19:14:02.580Z,83.30
2023-05-21T19:16:33.005Z,82.90
2023-05-21T19:19:03.476Z,82.80
2023-05-21T19:21:37.201Z,82.90
2023-05-21T19:24:09.008Z,83.30
2023-05-21T19:26:39.099Z,83.40
2023-05-21T19:29:09.761Z,83.50
2023-05-21T19:31:40.276Z,84.20
2023-05-21T19:34:11.216Z,84.30
2023-05-21T19:36:53.037Z,84.50
2023-05-21T19:39:24.289Z,84.80
2023-05-21T19:41:54.499Z,84.90
2023-05-21T19:44:24.594Z,85.10
2023-05-21T19:46:54.743Z,85.20
2023-05-21T19:49:24.836Z,85.50
2023-05-21T19:51:59.394Z,85.70
2023-05-21T19:54:29.497Z,86.00
2023-05-21T19:57:00.293Z,86.40
2023-05-21T19:59:30.382Z,86.80
2023-05-21T20:02:00.509Z,87.30
2023-05-21T20:04:30.673Z,87.40
2023-05-21T20:07:03.334Z,87.90
2023-05-21T20:09:33.798Z,88.00
2023-05-21T20:12:04.002Z,88.20
2023-05-21T20:14:34.569Z,88.40
2023-05-21T20:17:05.835Z,88.60
2023-05-21T20:19:37.955Z,88.50
2023-05-21T20:22:11.122Z,88.70
2023-05-21T20:24:41.201Z,88.40
2023-05-21T20:27:11.493Z,88.40
2023-05-21T20:29:43.049Z,88.90
2023-05-21T20:32:13.327Z,88.60
2023-05-21T20:34:58.333Z,88.70
2023-05-21T20:37:36.967Z,88.90
2023-05-21T20:40:07.392Z,88.90
2023-05-21T20:42:37.538Z,89.20
2023-05-21T20:45:08.909Z,89.10
2023-05-21T20:47:39.030Z,89.50
2023-05-21T20:50:10.245Z,89.50
2023-05-21T20:52:45.515Z,89.70
2023-05-21T20:55:17.153Z,89.80
2023-05-21T20:57:47.408Z,90.10
2023-05-21T21:00:18.350Z,90.20
2023-05-21T21:02:48.470Z,90.00
2023-05-21T21:05:20.306Z,90.20
2023-05-21T21:07:55.513Z,90.30
2023-05-21T21:10:25.924Z,90.50
2023-05-21T21:12:56.100Z,90.30
2023-05-21T21:15:26.205Z,90.50
2023-05-21T21:17:56.337Z,90.70
2023-05-21T21:20:27.052Z,90.60
2023-05-21T21:22:59.725Z,90.70
2023-05-21T21:25:29.831Z,90.70
2023-05-21T21:27:59.909Z,91.00
2023-05-21T21:30:29.996Z,91.00
2023-05-21T21:33:00.230Z,91.00
2023-05-21T21:35:30.533Z,90.90
2023-05-21T21:38:05.115Z,90.90
2023-05-21T21:40:35.218Z,91.00
2023-05-21T21:43:05.307Z,91.00
2023-05-21T21:45:35.480Z,90.90
2023-05-21T21:48:05.679Z,91.10
2023-05-21T21:50:36.026Z,91.00
2023-05-21T21:53:10.038Z,90.90
2023-05-21T21:55:40.081Z,90.80
2023-05-21T21:58:10.205Z,90.90
2023-05-21T22:00:40.552Z,90.90
2023-05-21T22:03:14.405Z,90.90
2023-05-21T22:05:45.059Z,90.90
2023-05-21T22:08:17.795Z,90.90
2023-05-21T22:10:47.833Z,90.70
2023-05-21T22:13:17.912Z,90.80
2023-05-21T22:15:49.261Z,90.70
2023-05-21T22:18:28.436Z,90.80
2023-05-21T22:21:10.149Z,90.80
2023-05-21T22:23:43.335Z,90.90
2023-05-21T22:26:13.551Z,91.00
2023-05-21T22:28:43.647Z,91.00
2023-05-21T22:31:13.814Z,91.00
2023-05-21T22:33:43.914Z,90.80
2023-05-21T22:36:14.224Z,90.70
2023-05-21T22:38:47.016Z,90.50
2023-05-21T22:41:17.104Z,90.50
2023-05-21T22:43:47.151Z,90.10
2023-05-21T22:46:17.386Z,90.20
2023-05-21T22:48:47.524Z,90.20
2023-05-21T22:51:17.692Z,90.20
2023-05-21T22:53:50.484Z,90.20
2023-05-21T22:56:21.179Z,90.00
2023-05-21T22:58:51.442Z,90.20
2023-05-21T23:01:21.653Z,90.00
2023-05-21T23:03:51.804Z,90.10
2023-05-21T23:06:22.001Z,90.30
2023-05-21T23:08:54.681Z,90.20
2023-05-21T23:11:27.599Z,90.20
2023-05-21T23:13:57.656Z,90.40
2023-05-21T23:16:30.902Z,90.30
2023-05-21T23:19:01.398Z,90.20
2023-05-21T23:21:31.745Z,90.40
2023-05-21T23:24:04.480Z,90.30
2023-05-21T23:26:34.650Z,90.10
2023-05-21T23:29:05.495Z,90.20
2023-05-21T23:31:35.843Z,90.20
2023-05-21T23:34:06.420Z,90.20
2023-05-21T23:36:36.511Z,90.20
2023-05-21T23:39:09.423Z,90.40
2023-05-21T23:41:39.942Z,90.20
2023-05-21T23:44:10.040Z,90.30
2023-05-21T23:46:40.084Z,90.40
2023-05-21T23:49:10.253Z,90.40
2023-05-21T23:51:40.489Z,90.40
2023-05-21T23:54:13.174Z,90.30
2023-05-21T23:56:43.758Z,90.20
2023-05-21T23:59:15.090Z,90.40
